Time;durP1;ratioP1;P1;durP2;ratioP2;P2;SDS_P1;SDS_P2;PMS_P1;PMS_P2;Temp;Humidity;BMP_temperature;BMP_pressure;BME280_temperature;BME280_humidity;BME280_pressure;Samples;Min_cycle;Max_cycle;Signal;HPM_P1;HPM_P2
2022/12/04 00:00:23;;;;;;;15.73;10.70;;;;;;;;;;4877339;29;20250;-85
2022/12/04 00:02:49;;;;;;;17.57;11.43;;;;;;;;;;4875658;29;20237;-86
2022/12/04 00:05:15;;;;;;;17.00;10.53;;;;;;;;;;4892103;29;20190;-84
2022/12/04 00:07:41;;;;;;;16.53;10.93;;;;;;;;;;4875353;29;20638;-85
2022/12/04 00:10:07;;;;;;;14.73;11.07;;;;;;;;;;4876685;29;20174;-84
2022/12/04 00:12:34;;;;;;;15.73;10.47;;;;;;;;;;4875004;29;20808;-85
2022/12/04 00:15:00;;;;;;;15.77;10.40;;;;;;;;;;4874823;29;20317;-85
2022/12/04 00:17:26;;;;;;;16.87;10.77;;;;;;;;;;4874010;29;20179;-84
2022/12/04 00:19:52;;;;;;;14.60;10.23;;;;;;;;;;4882250;29;20629;-84
2022/12/04 00:22:19;;;;;;;15.57;11.27;;;;;;;;;;4884486;29;20680;-84
2022/12/04 00:24:46;;;;;;;16.53;10.80;;;;;;;;;;4876909;29;20187;-84
2022/12/04 00:27:12;;;;;;;14.03;10.40;;;;;;;;;;4875298;29;20558;-87
2022/12/04 00:29:38;;;;;;;14.87;9.90;;;;;;;;;;4891347;29;20178;-84
2022/12/04 00:32:04;;;;;;;17.07;11.70;;;;;;;;;;4874041;29;20182;-85
2022/12/04 00:34:30;;;;;;;17.80;12.47;;;;;;;;;;4890682;29;20190;-84
2022/12/04 00:36:56;;;;;;;15.77;11.37;;;;;;;;;;4874774;29;20233;-86
2022/12/04 00:39:22;;;;;;;17.33;11.30;;;;;;;;;;4875325;29;20298;-84
2022/12/04 00:41:48;;;;;;;15.10;10.87;;;;;;;;;;4875032;29;20202;-84
2022/12/04 00:44:14;;;;;;;18.60;10.93;;;;;;;;;;4892382;29;20218;-85
2022/12/04 00:46:40;;;;;;;15.87;10.60;;;;;;;;;;4871918;29;20187;-84
2022/12/04 00:49:06;;;;;;;17.40;11.33;;;;;;;;;;4881976;29;20201;-84
2022/12/04 00:51:32;;;;;;;15.73;11.60;;;;;;;;;;4859959;29;20197;-85
2022/12/04 00:53:58;;;;;;;13.70;9.63;;;;;;;;;;4875265;29;20190;-84
2022/12/04 00:56:26;;;;;;;14.57;10.47;;;;;;;;;;4874257;29;20738;-83
2022/12/04 00:58:52;;;;;;;17.37;11.23;;;;;;;;;;4873086;29;20217;-85
2022/12/04 01:01:19;;;;;;;17.53;11.53;;;;;;;;;;4874305;29;20430;-84
2022/12/04 01:03:45;;;;;;;15.10;10.63;;;;;;;;;;4870824;29;20298;-85
2022/12/04 01:06:38;;;;;;;15.23;11.07;;;;;;;;;;4885058;29;20238;-84
2022/12/04 01:09:04;;;;;;;16.73;10.80;;;;;;;;;;4868890;29;20239;-84
2022/12/04 01:11:31;;;;;;;17.10;12.00;;;;;;;;;;4888727;29;20453;-84
2022/12/04 01:13:58;;;;;;;15.27;10.40;;;;;;;;;;4872013;29;20694;-86
2022/12/04 01:16:29;;;;;;;16.90;11.23;;;;;;;;;;4892446;29;20199;-84
2022/12/04 01:18:56;;;;;;;16.60;11.93;;;;;;;;;;4877029;29;20538;-85
2022/12/04 01:21:22;;;;;;;15.97;11.13;;;;;;;;;;4875598;29;20661;-83
2022/12/04 01:23:48;;;;;;;16.73;10.93;;;;;;;;;;4890559;29;20293;-85
2022/12/04 01:26:14;;;;;;;15.20;10.90;;;;;;;;;;4877139;29;20297;-84
2022/12/04 01:28:40;;;;;;;19.87;11.57;;;;;;;;;;4877541;29;20195;-84
2022/12/04 01:31:08;;;;;;;15.07;11.37;;;;;;;;;;4876260;29;21559;-84
2022/12/04 01:33:34;;;;;;;17.67;11.67;;;;;;;;;;4875705;29;20207;-84
2022/12/04 01:36:01;;;;;;;15.23;10.77;;;;;;;;;;4876048;29;20611;-84
2022/12/04 01:38:28;;;;;;;17.13;12.03;;;;;;;;;;4877016;29;20230;-85
2022/12/04 01:40:54;;;;;;;16.40;10.87;;;;;;;;;;4877590;29;20187;-84
2022/12/04 01:43:21;;;;;;;14.27;10.60;;;;;;;;;;4874545;29;20244;-85
2022/12/04 01:45:52;;;;;;;15.53;12.17;;;;;;;;;;4876411;29;20500;-84
2022/12/04 01:48:29;;;;;;;17.00;11.83;;;;;;;;;;4892282;29;20728;-83
2022/12/04 01:50:58;;;;;;;16.40;10.13;;;;;;;;;;4857770;29;20219;-86
2022/12/04 01:53:24;;;;;;;16.90;11.73;;;;;;;;;;4872268;29;20229;-86
2022/12/04 01:55:50;;;;;;;17.63;12.47;;;;;;;;;;4877021;29;20556;-85
2022/12/04 01:58:19;;;;;;;17.40;12.17;;;;;;;;;;4888688;29;20204;-84
2022/12/04 02:00:45;;;;;;;15.40;11.10;;;;;;;;;;4878890;29;20175;-86
2022/12/04 02:03:12;;;;;;;17.53;11.57;;;;;;;;;;4889155;29;20202;-85
2022/12/04 02:05:38;;;;;;;16.93;11.50;;;;;;;;;;4879395;29;20586;-84
2022/12/04 02:08:04;;;;;;;18.13;11.80;;;;;;;;;;4872682;29;20239;-86
2022/12/04 02:11:00;;;;;;;16.63;12.43;;;;;;;;;;4886559;29;20475;-84
2022/12/04 02:13:32;;;;;;;15.33;10.97;;;;;;;;;;4867496;29;20793;-85
2022/12/04 02:15:58;;;;;;;16.40;11.27;;;;;;;;;;4880468;29;20171;-85
2022/12/04 02:18:43;;;;;;;15.50;11.27;;;;;;;;;;4880779;29;20561;-85
2022/12/04 02:21:13;;;;;;;17.80;12.30;;;;;;;;;;4879529;29;20207;-84
2022/12/04 02:23:45;;;;;;;17.10;11.67;;;;;;;;;;4888795;29;20548;-85
2022/12/04 02:26:21;;;;;;;19.10;12.33;;;;;;;;;;4879537;29;20311;-85
2022/12/04 02:28:51;;;;;;;15.43;10.10;;;;;;;;;;4879729;29;20222;-84
2022/12/04 02:31:19;;;;;;;17.37;11.23;;;;;;;;;;4880720;29;20182;-85
2022/12/04 02:33:48;;;;;;;14.77;10.50;;;;;;;;;;4881230;29;20957;-86
2022/12/04 02:36:18;;;;;;;18.60;11.90;;;;;;;;;;4885394;29;20198;-84
2022/12/04 02:39:07;;;;;;;17.73;11.67;;;;;;;;;;4880657;29;20238;-83
2022/12/04 02:41:37;;;;;;;14.27;9.97;;;;;;;;;;4874510;29;20515;-86
2022/12/04 02:44:07;;;;;;;17.60;12.50;;;;;;;;;;4880349;29;20210;-85
2022/12/04 02:46:36;;;;;;;16.97;11.23;;;;;;;;;;4881135;29;20434;-84
2022/12/04 02:49:04;;;;;;;13.53;10.23;;;;;;;;;;4880155;29;20201;-84
2022/12/04 02:51:31;;;;;;;16.17;11.60;;;;;;;;;;4885763;29;20660;-85
2022/12/04 02:53:59;;;;;;;17.60;11.37;;;;;;;;;;4910670;29;20182;-85
2022/12/04 02:56:30;;;;;;;15.47;10.87;;;;;;;;;;4887750;29;20201;-84
2022/12/04 02:58:59;;;;;;;17.13;11.23;;;;;;;;;;4890434;29;20221;-85
2022/12/04 03:01:34;;;;;;;15.00;10.93;;;;;;;;;;4875347;29;20281;-84
2022/12/04 03:04:05;;;;;;;15.00;11.07;;;;;;;;;;4872230;29;20210;-86
2022/12/04 03:06:33;;;;;;;16.60;11.17;;;;;;;;;;4874174;29;20187;-86
2022/12/04 03:09:07;;;;;;;15.90;10.97;;;;;;;;;;4875292;29;20191;-86
2022/12/04 03:11:35;;;;;;;18.37;11.97;;;;;;;;;;4876273;29;20326;-86
2022/12/04 03:14:14;;;;;;;16.77;9.43;;;;;;;;;;4883771;29;20725;-85
2022/12/04 03:16:41;;;;;;;18.03;11.47;;;;;;;;;;4889505;29;20197;-85
2022/12/04 03:19:19;;;;;;;16.40;11.27;;;;;;;;;;4903618;29;20182;-85
2022/12/04 03:21:51;;;;;;;17.13;11.33;;;;;;;;;;4896536;29;20198;-85
2022/12/04 03:24:20;;;;;;;16.77;11.17;;;;;;;;;;4880419;29;20724;-84
2022/12/04 03:26:47;;;;;;;17.83;11.53;;;;;;;;;;4879162;29;20222;-85
2022/12/04 03:29:43;;;;;;;13.13;10.27;;;;;;;;;;4878460;29;20182;-84
2022/12/04 03:32:09;;;;;;;16.87;11.03;;;;;;;;;;4852292;29;20218;-86
2022/12/04 03:34:38;;;;;;;13.87;10.00;;;;;;;;;;4893334;29;20198;-85
2022/12/04 03:37:09;;;;;;;16.53;10.63;;;;;;;;;;4878502;29;20717;-84
2022/12/04 03:39:44;;;;;;;15.33;10.10;;;;;;;;;;4893575;29;20241;-84
2022/12/04 03:42:18;;;;;;;14.23;9.83;;;;;;;;;;4877559;29;20218;-85
2022/12/04 03:45:08;;;;;;;17.83;10.97;;;;;;;;;;4896051;29;20625;-85
2022/12/04 03:47:34;;;;;;;15.10;10.57;;;;;;;;;;4859268;29;20186;-85
2022/12/04 03:50:02;;;;;;;18.07;10.53;;;;;;;;;;4878163;29;20665;-85
2022/12/04 03:52:31;;;;;;;15.73;11.57;;;;;;;;;;4876847;29;20954;-85
2022/12/04 03:55:10;;;;;;;14.00;9.50;;;;;;;;;;4877255;29;20186;-85
2022/12/04 03:57:39;;;;;;;14.27;10.03;;;;;;;;;;4876017;29;20702;-85
2022/12/04 04:00:08;;;;;;;16.60;10.40;;;;;;;;;;4871380;29;20471;-86
2022/12/04 04:02:37;;;;;;;15.17;11.33;;;;;;;;;;4882286;29;20182;-86
2022/12/04 04:05:06;;;;;;;16.60;11.53;;;;;;;;;;4894029;29;20192;-85
2022/12/04 04:07:33;;;;;;;13.57;10.17;;;;;;;;;;4875287;29;20198;-85
2022/12/04 04:10:01;;;;;;;15.53;10.43;;;;;;;;;;4893914;29;20247;-85
2022/12/04 04:12:31;;;;;;;13.30;10.53;;;;;;;;;;4876025;29;20246;-86
2022/12/04 04:26:06;;;;;;;13.87;9.90;;;;;;;;;;4895056;29;20170;-84
2022/12/04 04:28:36;;;;;;;14.27;10.00;;;;;;;;;;4875561;29;20269;-87
2022/12/04 04:31:08;;;;;;;12.87;9.07;;;;;;;;;;4892504;29;20186;-84
2022/12/04 04:33:38;;;;;;;13.40;9.10;;;;;;;;;;4893199;29;20424;-84
2022/12/04 04:36:11;;;;;;;15.17;9.73;;;;;;;;;;4876078;29;20305;-84
2022/12/04 04:38:45;;;;;;;16.17;10.57;;;;;;;;;;4877132;29;20319;-85
2022/12/04 04:41:40;;;;;;;14.57;10.73;;;;;;;;;;4877281;29;20201;-87
2022/12/04 04:44:14;;;;;;;13.03;10.33;;;;;;;;;;4810306;29;20259;-85
2022/12/04 04:46:44;;;;;;;15.40;10.00;;;;;;;;;;4876523;29;20183;-86
2022/12/04 04:49:11;;;;;;;13.53;9.70;;;;;;;;;;4874969;29;20235;-86
2022/12/04 04:51:38;;;;;;;14.43;9.93;;;;;;;;;;4893188;29;20189;-85
2022/12/04 04:54:06;;;;;;;14.93;10.63;;;;;;;;;;4874794;29;20194;-85
2022/12/04 04:56:38;;;;;;;14.80;10.23;;;;;;;;;;4875829;29;20629;-84
2022/12/04 04:59:04;;;;;;;12.97;9.63;;;;;;;;;;4874759;29;20246;-85
2022/12/04 05:01:31;;;;;;;11.30;8.83;;;;;;;;;;4892186;29;20445;-86
2022/12/04 05:03:57;;;;;;;13.77;9.00;;;;;;;;;;4876177;29;20557;-84
2022/12/04 05:06:23;;;;;;;14.47;9.70;;;;;;;;;;4892474;29;20212;-86
2022/12/04 05:08:49;;;;;;;12.93;9.37;;;;;;;;;;4880394;29;20198;-86
2022/12/04 05:11:16;;;;;;;13.50;10.00;;;;;;;;;;4874204;29;20179;-84
2022/12/04 05:13:42;;;;;;;13.03;9.77;;;;;;;;;;4874592;29;20430;-84
2022/12/04 05:16:11;;;;;;;13.83;10.13;;;;;;;;;;4877079;29;20200;-85
2022/12/04 05:18:37;;;;;;;10.63;8.47;;;;;;;;;;4875953;29;20290;-85
2022/12/04 05:21:07;;;;;;;13.50;9.17;;;;;;;;;;4875423;29;20634;-87
2022/12/04 05:23:34;;;;;;;13.27;9.33;;;;;;;;;;4872556;29;20234;-85
2022/12/04 05:26:04;;;;;;;11.60;8.80;;;;;;;;;;4870462;29;20196;-84
2022/12/04 05:28:30;;;;;;;12.13;7.77;;;;;;;;;;4883395;29;20187;-85
2022/12/04 05:30:56;;;;;;;11.87;8.60;;;;;;;;;;4880143;29;20186;-84
2022/12/04 05:33:22;;;;;;;12.07;8.10;;;;;;;;;;4895540;29;20760;-85
2022/12/04 05:36:06;;;;;;;10.30;8.37;;;;;;;;;;4878304;29;20407;-85
2022/12/04 05:38:33;;;;;;;12.87;8.97;;;;;;;;;;4896619;29;20289;-84
2022/12/04 05:40:59;;;;;;;10.63;7.63;;;;;;;;;;4879049;29;20175;-84
2022/12/04 05:43:26;;;;;;;10.70;8.30;;;;;;;;;;4878871;29;20381;-85
2022/12/04 05:45:52;;;;;;;11.70;8.10;;;;;;;;;;4880171;29;20552;-85
2022/12/04 05:48:18;;;;;;;12.33;9.60;;;;;;;;;;4878864;29;20183;-85
2022/12/04 05:50:44;;;;;;;11.30;8.23;;;;;;;;;;4895660;29;20182;-85
2022/12/04 05:53:10;;;;;;;12.67;8.20;;;;;;;;;;4879284;29;20362;-87
2022/12/04 05:55:43;;;;;;;10.57;7.20;;;;;;;;;;4880297;29;20469;-88
2022/12/04 05:58:10;;;;;;;10.47;8.00;;;;;;;;;;4878856;29;20182;-84
2022/12/04 06:00:36;;;;;;;12.07;8.13;;;;;;;;;;4879061;29;20266;-86
2022/12/04 06:03:02;;;;;;;12.97;8.43;;;;;;;;;;4879560;29;20202;-85
2022/12/04 06:05:28;;;;;;;10.70;8.10;;;;;;;;;;4879733;29;20190;-85
2022/12/04 06:07:54;;;;;;;10.60;7.00;;;;;;;;;;4862965;29;20191;-86
2022/12/04 06:10:20;;;;;;;11.13;7.90;;;;;;;;;;4890886;29;20596;-85
2022/12/04 06:12:46;;;;;;;10.73;7.90;;;;;;;;;;4879091;29;20549;-85
2022/12/04 06:15:12;;;;;;;12.27;8.80;;;;;;;;;;4878274;29;20638;-85
2022/12/04 06:17:38;;;;;;;9.63;7.53;;;;;;;;;;4896910;29;20641;-85
2022/12/04 06:20:04;;;;;;;10.87;7.63;;;;;;;;;;4879544;29;20242;-86
2022/12/04 06:22:30;;;;;;;10.27;7.67;;;;;;;;;;4878196;29;20195;-84
2022/12/04 06:24:56;;;;;;;11.37;7.50;;;;;;;;;;4880003;29;20174;-85
2022/12/04 06:27:22;;;;;;;11.13;8.07;;;;;;;;;;4879099;29;20308;-85
2022/12/04 06:29:48;;;;;;;12.27;8.03;;;;;;;;;;4878891;29;20283;-84
2022/12/04 06:32:14;;;;;;;10.83;8.23;;;;;;;;;;4878498;29;20733;-85
2022/12/04 06:34:40;;;;;;;10.43;7.47;;;;;;;;;;4879723;29;20190;-85
2022/12/04 06:37:08;;;;;;;10.03;7.17;;;;;;;;;;4876939;29;20698;-85
2022/12/04 06:39:46;;;;;;;10.03;7.43;;;;;;;;;;4893665;29;20222;-85
2022/12/04 06:42:12;;;;;;;13.47;8.93;;;;;;;;;;4875849;29;20233;-84
2022/12/04 06:44:39;;;;;;;10.30;7.77;;;;;;;;;;4883140;29;20458;-85
2022/12/04 06:47:05;;;;;;;10.07;7.23;;;;;;;;;;4875865;29;20179;-84
2022/12/04 06:49:31;;;;;;;10.50;7.90;;;;;;;;;;4883857;29;20579;-85
2022/12/04 06:51:57;;;;;;;10.33;8.10;;;;;;;;;;4890457;29;20182;-85
2022/12/04 06:54:23;;;;;;;9.50;6.80;;;;;;;;;;4886996;29;20183;-87
2022/12/04 06:56:49;;;;;;;9.57;7.03;;;;;;;;;;4914451;29;20187;-84
2022/12/04 06:59:15;;;;;;;9.90;7.57;;;;;;;;;;4896979;29;20537;-84
2022/12/04 07:01:41;;;;;;;12.63;8.13;;;;;;;;;;4876905;29;20247;-86
2022/12/04 07:04:07;;;;;;;9.87;7.07;;;;;;;;;;4869947;29;20459;-85
2022/12/04 07:06:37;;;;;;;10.37;7.37;;;;;;;;;;4893850;29;20214;-84
2022/12/04 07:09:03;;;;;;;11.23;8.17;;;;;;;;;;4897971;29;20186;-84
2022/12/04 07:11:29;;;;;;;10.10;7.13;;;;;;;;;;4879652;29;20202;-85
2022/12/04 07:13:55;;;;;;;11.50;7.70;;;;;;;;;;4879647;29;20634;-87
2022/12/04 07:16:22;;;;;;;8.47;6.53;;;;;;;;;;4878838;29;20249;-84
2022/12/04 07:18:55;;;;;;;9.90;7.60;;;;;;;;;;4889202;29;20557;-84
2022/12/04 07:21:29;;;;;;;9.93;7.57;;;;;;;;;;4876043;29;20187;-85
2022/12/04 07:23:56;;;;;;;8.53;6.17;;;;;;;;;;4878708;29;20241;-85
2022/12/04 07:26:23;;;;;;;10.00;7.50;;;;;;;;;;4881657;29;20174;-84
2022/12/04 07:28:49;;;;;;;9.50;7.00;;;;;;;;;;4877807;29;20194;-84
2022/12/04 07:31:17;;;;;;;9.93;7.30;;;;;;;;;;4896078;29;20482;-86
2022/12/04 07:33:44;;;;;;;10.67;7.97;;;;;;;;;;4879517;29;20518;-87
2022/12/04 07:36:12;;;;;;;9.70;7.43;;;;;;;;;;4877679;29;20989;-87
2022/12/04 07:38:38;;;;;;;9.73;7.60;;;;;;;;;;4890289;29;20179;-85
2022/12/04 07:41:05;;;;;;;8.43;6.77;;;;;;;;;;4879450;29;20277;-85
2022/12/04 07:43:31;;;;;;;10.73;8.00;;;;;;;;;;4909208;29;20217;-84
2022/12/04 07:45:58;;;;;;;8.57;6.70;;;;;;;;;;4896185;29;20212;-83
2022/12/04 07:48:24;;;;;;;10.07;7.23;;;;;;;;;;4879449;29;20181;-84
2022/12/04 07:50:50;;;;;;;9.57;7.47;;;;;;;;;;4874933;29;20174;-84
2022/12/04 07:53:16;;;;;;;9.53;6.87;;;;;;;;;;4889579;29;20435;-85
2022/12/04 07:55:42;;;;;;;9.53;6.73;;;;;;;;;;4878268;29;20411;-84
2022/12/04 07:58:08;;;;;;;10.03;7.30;;;;;;;;;;4879128;29;20190;-84
2022/12/04 08:00:34;;;;;;;8.33;6.70;;;;;;;;;;4881555;29;20682;-83
2022/12/04 08:03:00;;;;;;;8.23;6.70;;;;;;;;;;4898368;29;20551;-83
2022/12/04 08:05:27;;;;;;;8.77;6.20;;;;;;;;;;4880580;29;20650;-85
2022/12/04 08:07:53;;;;;;;9.43;6.97;;;;;;;;;;4894426;29;20194;-85
2022/12/04 08:10:19;;;;;;;8.20;6.53;;;;;;;;;;4878191;29;20717;-83
2022/12/04 08:12:45;;;;;;;9.67;7.13;;;;;;;;;;4892958;29;20541;-85
2022/12/04 08:15:11;;;;;;;9.30;6.23;;;;;;;;;;4890155;29;20215;-86
2022/12/04 08:17:37;;;;;;;9.00;7.27;;;;;;;;;;4874708;29;20295;-85
2022/12/04 08:20:03;;;;;;;9.40;6.80;;;;;;;;;;4877219;29;20190;-86
2022/12/04 08:22:29;;;;;;;8.80;7.23;;;;;;;;;;4891624;29;20674;-83
2022/12/04 08:24:55;;;;;;;8.10;7.30;;;;;;;;;;4878238;29;20925;-85
2022/12/04 08:27:21;;;;;;;8.37;6.67;;;;;;;;;;4877046;29;20191;-87
2022/12/04 08:29:47;;;;;;;8.47;6.43;;;;;;;;;;4875998;29;20186;-83
2022/12/04 08:32:14;;;;;;;9.27;6.30;;;;;;;;;;4875994;29;20668;-84
2022/12/04 08:34:40;;;;;;;9.43;6.70;;;;;;;;;;4879729;29;20716;-84
2022/12/04 08:37:06;;;;;;;7.80;6.33;;;;;;;;;;4875679;29;20228;-84
2022/12/04 08:39:32;;;;;;;8.27;6.60;;;;;;;;;;4877311;29;20257;-84
2022/12/04 08:41:58;;;;;;;9.83;7.53;;;;;;;;;;4879595;29;20198;-84
2022/12/04 08:44:24;;;;;;;8.03;6.23;;;;;;;;;;4887825;29;20473;-85
2022/12/04 08:46:50;;;;;;;8.97;6.53;;;;;;;;;;4894909;29;20663;-84
2022/12/04 08:49:16;;;;;;;8.13;6.47;;;;;;;;;;4894995;29;20587;-84
2022/12/04 08:51:42;;;;;;;9.07;6.17;;;;;;;;;;4897711;29;20386;-84
2022/12/04 08:54:08;;;;;;;7.43;5.77;;;;;;;;;;4878690;29;20198;-85
2022/12/04 08:56:36;;;;;;;7.87;5.97;;;;;;;;;;4879158;29;20633;-85
2022/12/04 08:59:02;;;;;;;7.30;6.33;;;;;;;;;;4876684;29;20183;-85
2022/12/04 09:01:28;;;;;;;9.03;6.70;;;;;;;;;;4878591;29;20190;-85
2022/12/04 09:03:55;;;;;;;9.17;6.77;;;;;;;;;;4872592;29;20210;-85
2022/12/04 09:06:21;;;;;;;7.53;6.10;;;;;;;;;;4879714;29;20442;-87
2022/12/04 09:08:48;;;;;;;8.43;5.90;;;;;;;;;;4888239;29;20494;-84
2022/12/04 09:11:19;;;;;;;6.63;5.90;;;;;;;;;;4880978;29;20182;-86
2022/12/04 09:13:45;;;;;;;9.73;6.60;;;;;;;;;;4895276;29;20186;-88
2022/12/04 09:16:13;;;;;;;8.13;6.77;;;;;;;;;;4884380;29;20618;-87
2022/12/04 09:18:39;;;;;;;7.47;5.97;;;;;;;;;;4899644;29;20461;-85
2022/12/04 09:21:08;;;;;;;6.87;5.53;;;;;;;;;;4899218;29;20814;-85
2022/12/04 09:23:35;;;;;;;6.37;5.27;;;;;;;;;;4885044;29;20465;-86
2022/12/04 09:26:01;;;;;;;8.10;5.90;;;;;;;;;;4886379;29;20213;-85
2022/12/04 09:28:27;;;;;;;7.27;5.57;;;;;;;;;;4881596;29;20186;-84
2022/12/04 09:30:57;;;;;;;7.33;6.30;;;;;;;;;;4882575;29;20182;-86
2022/12/04 09:33:23;;;;;;;8.17;6.23;;;;;;;;;;4881773;29;21135;-84
2022/12/04 09:35:49;;;;;;;7.40;5.90;;;;;;;;;;4877997;29;20393;-84
2022/12/04 09:38:15;;;;;;;8.30;6.50;;;;;;;;;;4878063;29;20649;-85
2022/12/04 09:40:52;;;;;;;8.47;6.40;;;;;;;;;;4875693;29;20234;-84
2022/12/04 09:43:33;;;;;;;6.97;5.90;;;;;;;;;;4878458;29;21035;-85
2022/12/04 09:46:02;;;;;;;8.17;6.33;;;;;;;;;;4897680;29;20186;-86
2022/12/04 09:48:34;;;;;;;8.50;6.67;;;;;;;;;;4871763;29;20190;-86
2022/12/04 09:51:01;;;;;;;8.17;6.27;;;;;;;;;;4893306;29;20187;-85
2022/12/04 09:53:29;;;;;;;8.07;6.77;;;;;;;;;;4880683;29;20921;-84
2022/12/04 09:56:18;;;;;;;7.33;6.27;;;;;;;;;;4873268;29;20443;-85
2022/12/04 09:58:47;;;;;;;8.03;6.27;;;;;;;;;;4873038;29;20450;-85
2022/12/04 10:01:24;;;;;;;9.90;6.60;;;;;;;;;;4880166;29;20186;-85
2022/12/04 10:03:52;;;;;;;7.67;6.00;;;;;;;;;;4868797;29;20470;-85
2022/12/04 10:06:47;;;;;;;7.80;6.17;;;;;;;;;;4870018;29;20186;-85
2022/12/04 10:09:21;;;;;;;7.23;5.50;;;;;;;;;;4803925;29;20443;-85
2022/12/04 10:12:06;;;;;;;7.43;6.23;;;;;;;;;;4887503;29;20198;-87
2022/12/04 10:14:32;;;;;;;10.17;6.73;;;;;;;;;;4875900;29;20245;-85
2022/12/04 10:17:01;;;;;;;7.57;6.60;;;;;;;;;;4885976;29;20185;-87
2022/12/04 10:19:36;;;;;;;7.93;5.63;;;;;;;;;;4886370;29;20446;-85
2022/12/04 10:22:08;;;;;;;7.07;5.60;;;;;;;;;;4896470;29;20944;-85
2022/12/04 10:24:34;;;;;;;7.80;6.50;;;;;;;;;;4897233;29;20213;-88
2022/12/04 10:27:04;;;;;;;9.33;6.83;;;;;;;;;;4875094;29;20390;-85
2022/12/04 10:29:32;;;;;;;10.30;6.73;;;;;;;;;;4886750;29;20478;-85
2022/12/04 10:32:01;;;;;;;7.37;5.90;;;;;;;;;;4872782;29;20907;-83
2022/12/04 10:34:28;;;;;;;8.57;5.90;;;;;;;;;;4888719;29;20190;-84
2022/12/04 10:36:58;;;;;;;8.73;6.47;;;;;;;;;;4878437;29;20469;-85
2022/12/04 10:39:25;;;;;;;8.73;6.40;;;;;;;;;;4880279;29;20233;-84
2022/12/04 10:41:57;;;;;;;7.53;6.27;;;;;;;;;;4894189;29;20201;-84
2022/12/04 10:44:24;;;;;;;8.83;6.83;;;;;;;;;;4876591;29;20210;-84
2022/12/04 10:46:52;;;;;;;8.50;6.37;;;;;;;;;;4877567;29;20823;-86
2022/12/04 10:49:24;;;;;;;7.57;6.73;;;;;;;;;;4880124;29;20515;-84
2022/12/04 10:51:50;;;;;;;9.13;7.87;;;;;;;;;;4878815;29;20183;-83
2022/12/04 10:54:22;;;;;;;10.13;6.47;;;;;;;;;;4877077;29;20451;-84
2022/12/04 10:56:51;;;;;;;7.83;6.33;;;;;;;;;;4895364;29;20178;-85
2022/12/04 10:59:17;;;;;;;8.13;6.20;;;;;;;;;;4876529;29;20194;-86
2022/12/04 11:01:44;;;;;;;10.23;6.67;;;;;;;;;;4876855;29;20439;-87
2022/12/04 11:04:19;;;;;;;9.17;6.70;;;;;;;;;;4891702;29;20214;-84
2022/12/04 11:06:45;;;;;;;9.40;6.87;;;;;;;;;;4874447;29;20195;-82
2022/12/04 11:09:31;;;;;;;8.57;6.77;;;;;;;;;;4893651;29;20612;-84
2022/12/04 11:12:07;;;;;;;9.63;7.40;;;;;;;;;;4876770;29;20898;-85
2022/12/04 11:14:33;;;;;;;8.30;7.03;;;;;;;;;;4877146;29;20443;-83
2022/12/04 11:17:01;;;;;;;7.80;6.30;;;;;;;;;;4876071;29;20269;-84
2022/12/04 11:19:29;;;;;;;8.90;6.23;;;;;;;;;;4893753;29;20236;-83
2022/12/04 11:22:03;;;;;;;8.13;5.83;;;;;;;;;;4886183;29;20191;-83
2022/12/04 11:24:31;;;;;;;11.87;7.40;;;;;;;;;;4896765;29;20214;-82
2022/12/04 11:26:57;;;;;;;9.23;7.13;;;;;;;;;;4883051;29;20434;-82
2022/12/04 11:29:32;;;;;;;8.80;6.83;;;;;;;;;;4878364;29;20186;-83
2022/12/04 11:31:59;;;;;;;8.93;6.40;;;;;;;;;;4879816;29;20225;-82
2022/12/04 11:34:29;;;;;;;9.03;6.90;;;;;;;;;;4878216;29;20587;-83
2022/12/04 11:36:56;;;;;;;8.03;6.43;;;;;;;;;;4892756;29;20660;-83
2022/12/04 11:39:34;;;;;;;8.27;6.43;;;;;;;;;;4879966;29;20290;-82
2022/12/04 11:42:05;;;;;;;7.93;7.07;;;;;;;;;;4887840;29;20226;-82
2022/12/04 11:44:32;;;;;;;9.90;7.63;;;;;;;;;;4873465;29;20535;-81
2022/12/04 11:47:01;;;;;;;9.23;6.70;;;;;;;;;;4880864;29;20720;-82
2022/12/04 11:49:28;;;;;;;10.80;7.87;;;;;;;;;;4874812;29;20305;-85
2022/12/04 11:52:00;;;;;;;10.13;8.13;;;;;;;;;;4875286;29;20435;-82
2022/12/04 11:54:26;;;;;;;9.80;8.00;;;;;;;;;;4895780;29;20468;-80
2022/12/04 11:57:00;;;;;;;12.23;7.77;;;;;;;;;;4879242;29;20603;-82
2022/12/04 11:59:29;;;;;;;10.47;7.40;;;;;;;;;;4879222;29;20461;-83
2022/12/04 12:02:15;;;;;;;10.90;7.63;;;;;;;;;;4875750;29;20281;-82
2022/12/04 12:04:48;;;;;;;9.17;7.67;;;;;;;;;;4887095;29;20474;-82
2022/12/04 12:07:21;;;;;;;10.00;7.27;;;;;;;;;;4894079;29;20895;-81
2022/12/04 12:09:54;;;;;;;11.17;7.07;;;;;;;;;;4878502;29;20443;-83
2022/12/04 12:12:25;;;;;;;10.50;7.93;;;;;;;;;;4877955;29;20455;-81
2022/12/04 12:15:02;;;;;;;9.20;6.90;;;;;;;;;;4894785;29;20435;-81
2022/12/04 12:17:36;;;;;;;9.50;7.33;;;;;;;;;;4878656;29;20450;-81
2022/12/04 12:20:21;;;;;;;7.83;6.53;;;;;;;;;;4875711;29;20186;-83
2022/12/04 12:22:47;;;;;;;11.67;8.90;;;;;;;;;;4875723;29;20198;-83
2022/12/04 12:25:17;;;;;;;14.83;9.73;;;;;;;;;;4878931;29;20770;-85
2022/12/04 12:27:46;;;;;;;11.20;8.57;;;;;;;;;;4870997;29;20562;-82
2022/12/04 12:30:18;;;;;;;34.87;12.10;;;;;;;;;;4876316;29;21085;-82
2022/12/04 12:32:57;;;;;;;14.50;7.33;;;;;;;;;;4877931;29;20666;-80
2022/12/04 12:35:26;;;;;;;25.53;8.00;;;;;;;;;;4878455;29;20996;-79
2022/12/04 12:38:00;;;;;;;22.70;8.30;;;;;;;;;;4879153;29;20411;-86
2022/12/04 12:40:30;;;;;;;27.00;7.53;;;;;;;;;;4891842;29;20306;-81
2022/12/04 12:43:00;;;;;;;17.20;6.37;;;;;;;;;;4878828;29;20469;-79
2022/12/04 12:45:44;;;;;;;18.63;9.00;;;;;;;;;;4872370;29;20867;-80
2022/12/04 12:48:18;;;;;;;14.73;7.90;;;;;;;;;;4902307;29;20269;-81
2022/12/04 12:50:47;;;;;;;11.83;7.23;;;;;;;;;;4879165;29;20194;-81
2022/12/04 12:53:20;;;;;;;10.80;7.57;;;;;;;;;;4879302;29;20442;-82
2022/12/04 12:55:57;;;;;;;12.57;6.87;;;;;;;;;;4894919;29;20200;-80
2022/12/04 12:58:29;;;;;;;12.83;6.97;;;;;;;;;;4877024;29;20197;-81
2022/12/04 13:00:59;;;;;;;16.47;7.47;;;;;;;;;;4883404;29;20508;-81
2022/12/04 13:03:29;;;;;;;10.20;6.63;;;;;;;;;;4885321;29;20486;-80
2022/12/04 13:05:59;;;;;;;10.37;6.50;;;;;;;;;;4875811;29;20435;-85
2022/12/04 13:08:27;;;;;;;11.13;6.80;;;;;;;;;;4886918;29;20197;-80
2022/12/04 13:11:07;;;;;;;11.17;6.40;;;;;;;;;;4893885;29;20485;-79
2022/12/04 13:13:34;;;;;;;10.90;5.67;;;;;;;;;;4877626;29;20426;-81
2022/12/04 13:16:10;;;;;;;11.67;6.37;;;;;;;;;;4878388;29;20465;-81
2022/12/04 13:18:55;;;;;;;7.90;5.40;;;;;;;;;;4875346;29;20304;-81
2022/12/04 13:21:32;;;;;;;11.00;6.63;;;;;;;;;;4873950;29;20553;-80
2022/12/04 13:23:58;;;;;;;12.43;7.10;;;;;;;;;;4868319;29;20206;-81
2022/12/04 13:26:24;;;;;;;10.87;6.43;;;;;;;;;;4870301;29;20446;-83
2022/12/04 13:28:57;;;;;;;12.90;6.57;;;;;;;;;;4885152;29;20184;-83
2022/12/04 13:31:27;;;;;;;12.63;6.30;;;;;;;;;;4867952;29;20701;-81
2022/12/04 13:34:19;;;;;;;10.83;7.13;;;;;;;;;;4871581;29;20214;-81
2022/12/04 13:37:11;;;;;;;13.57;6.73;;;;;;;;;;4837595;29;20203;-82
2022/12/04 13:39:48;;;;;;;9.93;6.33;;;;;;;;;;4875062;29;20242;-81
2022/12/04 13:42:21;;;;;;;9.77;6.30;;;;;;;;;;4885793;29;20800;-82
2022/12/04 13:44:52;;;;;;;11.00;6.00;;;;;;;;;;4897163;29;20297;-84
2022/12/04 13:47:25;;;;;;;11.40;7.60;;;;;;;;;;4899708;29;21082;-83
2022/12/04 13:50:04;;;;;;;12.40;7.07;;;;;;;;;;4884842;29;20182;-82
2022/12/04 13:52:39;;;;;;;12.17;6.50;;;;;;;;;;4893092;29;20926;-82
2022/12/04 13:55:22;;;;;;;10.27;6.90;;;;;;;;;;4878545;29;20657;-83
2022/12/04 13:58:01;;;;;;;13.33;7.07;;;;;;;;;;4875475;29;20458;-82
2022/12/04 14:00:29;;;;;;;8.07;5.57;;;;;;;;;;4879564;29;21048;-83
2022/12/04 14:02:57;;;;;;;10.33;6.73;;;;;;;;;;4881585;29;20193;-82
2022/12/04 14:05:41;;;;;;;11.43;7.47;;;;;;;;;;4888125;29;20284;-84
2022/12/04 14:08:20;;;;;;;11.20;6.77;;;;;;;;;;4891566;29;20193;-84
2022/12/04 14:10:56;;;;;;;10.67;7.20;;;;;;;;;;4892129;29;20285;-84
2022/12/04 14:13:24;;;;;;;14.07;7.37;;;;;;;;;;4896831;29;20431;-82
2022/12/04 14:16:02;;;;;;;13.23;7.30;;;;;;;;;;4878131;29;20195;-83
2022/12/04 14:18:29;;;;;;;14.70;8.40;;;;;;;;;;4894208;29;20697;-85
2022/12/04 14:20:59;;;;;;;10.83;6.73;;;;;;;;;;4872396;29;20454;-81
2022/12/04 14:23:32;;;;;;;9.73;6.73;;;;;;;;;;4876605;29;20233;-83
2022/12/04 14:25:59;;;;;;;10.40;7.13;;;;;;;;;;4875877;29;20273;-82
2022/12/04 14:28:31;;;;;;;11.97;7.07;;;;;;;;;;4877296;29;20836;-81
2022/12/04 14:31:15;;;;;;;10.00;5.53;;;;;;;;;;4896751;29;20269;-82
2022/12/04 14:33:47;;;;;;;11.67;6.57;;;;;;;;;;4875108;29;20613;-84
2022/12/04 14:36:20;;;;;;;8.60;6.13;;;;;;;;;;4873988;29;20635;-82
2022/12/04 14:38:47;;;;;;;9.63;5.83;;;;;;;;;;4875808;29;20213;-83
2022/12/04 14:41:13;;;;;;;11.27;6.10;;;;;;;;;;4880384;29;20293;-84
2022/12/04 14:43:40;;;;;;;10.57;6.10;;;;;;;;;;4887730;29;20222;-82
2022/12/04 14:46:12;;;;;;;9.43;5.93;;;;;;;;;;4875304;29;20444;-86
2022/12/04 14:48:47;;;;;;;9.33;5.60;;;;;;;;;;4892591;29;20179;-83
2022/12/04 14:51:24;;;;;;;9.07;5.97;;;;;;;;;;4887290;29;20197;-83
2022/12/04 14:53:56;;;;;;;9.37;6.03;;;;;;;;;;4876832;29;20175;-86
2022/12/04 14:56:22;;;;;;;10.57;6.03;;;;;;;;;;4876428;29;20186;-83